Terminal Aerodrome Forecast
Issued by NWS

Home | Current Version | Previous Version | Text Only | Print | Product List | Glossary On
Versions: 1 2 3 4 5 6 7 8 9 10 11 12 13 14 15 16 17
000
FTUS41 KPBZ 271730
TAFMGW
TAF
KMGW 271730Z 2718/2818 22008KT P6SM BKN035
     FM280600 21005KT P6SM VCSH OVC040
     FM281000 26004KT P6SM BKN025
     FM281500 29006KT P6SM SCT040=

USA.gov is the U.S. government's official web portal to all federal, state and local government web resources and services.